Latest Weather Observations for Newdegate

IDW60801

Issued at 5:02 pm WST Thursday 11 February 2016 (issued every 30 minutes, with the page automatically refreshed every 10 minutes)

About weather observations | Map of weather stations | Latest weather observations for WA | Other Formats
Station Details ID: 010692 Name: NEWDEGATE RESEARCH STATION Lat: -33.11 Lon: 118.84 Height: 320.0 m
Data from the previous 72 hours. | See also: Recent months at Newdegate
Date/Time
WST
Temp
°C
App
Temp
°C
Dew
Point
Rel
Hum
%
Delta-T
°C
Wind Press
QNH
hPa
Press
MSL
hPa
Rain
since 9 am
mm
Dir
 
Spd
km/h
Gust
km/h
Spd
kts
Gust
kts
11/05:00pm 41.8 36.4 2.5 9 21.3 NW 20 32 11 17 1009.9 1008.4 0.0
11/04:30pm 42.3 36.3 1.2 8 21.9 WNW 22 33 12 18 1010.0 1008.5 0.0
11/04:00pm 42.8 37.3 1.6 8 22.1 NW 20 32 11 17 1010.2 1008.7 0.0
11/03:30pm 42.6 36.3 1.4 8 22.0 WNW 24 33 13 18 1010.4 1008.9 0.0
11/03:00pm 43.3 37.4 1.9 8 22.4 NW 22 39 12 21 1010.6 1009.1 0.0
11/02:30pm 43.7 37.5 2.2 8 22.6 WNW 24 35 13 19 1011.0 1009.5 0.0
11/02:00pm 42.2 36.1 2.8 9 21.5 WNW 24 43 13 23 1011.3 1009.9 0.0
11/01:30pm 42.4 36.3 2.9 9 21.6 NNW 24 37 13 20 1011.6 1010.2 0.0
11/01:00pm 42.7 35.9 3.1 9 21.7 NW 28 43 15 23 1011.9 1010.5 0.0
11/12:34pm 42.1 35.2 2.7 9 21.4 NW 28 59 15 32 1012.2 1010.8 0.0
11/12:30pm 42.2 36.4 4.3 10 21.1 NW 24 39 13 21 1012.2 1010.8 0.0
11/12:00pm 41.7 35.3 5.3 11 20.5 NW 28 39 15 21 1012.7 1011.2 0.0
11/11:30am 40.3 33.6 5.4 12 19.5 NW 30 44 16 24 1013.1 1011.6 0.0
11/11:00am 39.1 31.8 4.5 12 19.0 NW 32 43 17 23 1013.5 1012.0 0.0
11/10:53am 38.8 32.1 5.4 13 18.6 NW 30 48 16 26 1013.7 1012.2 0.0
11/10:30am 38.1 31.3 4.9 13 18.3 NW 30 43 16 23 1013.9 1012.5 0.0
11/10:00am 36.9 31.1 7.8 17 16.6 NNW 28 33 15 18 1014.3 1012.9 0.0
11/09:30am 33.1 29.3 11.0 26 13.0 NNW 22 32 12 17 1014.4 1013.0 0.0
11/09:00am 30.4 27.4 11.9 32 10.9 N 19 26 10 14 1014.6 1013.2 0.0
11/08:30am 27.3 26.6 14.3 45 7.9 N 11 15 6 8 1014.8 1013.4 0.0
11/08:00am 23.2 23.8 15.8 63 4.5 NE 7 9 4 5 1014.8 1013.4 0.0
11/07:30am 21.0 21.8 16.4 75 2.8 ENE 7 9 4 5 1015.0 1013.6 0.0
11/07:00am 18.9 20.2 17.0 89 1.2 E 6 9 3 5 1015.0 1013.6 0.0
11/06:30am 17.4 18.0 15.9 91 0.9 ESE 7 11 4 6 1015.0 1013.6 0.0
11/06:00am 16.3 16.5 14.8 91 0.9 ESE 7 11 4 6 1015.0 1013.6 0.0
11/05:30am 15.7 15.7 14.1 90 0.9 ESE 7 9 4 5 1014.6 1013.2 0.0
11/05:00am 16.4 16.2 14.8 90 0.9 E 9 11 5 6 1014.5 1013.1 0.0
11/04:30am 16.8 16.4 15.2 90 0.9 E 11 19 6 10 1014.6 1013.2 0.0
11/04:00am 16.3 16.1 14.7 90 0.9 E 9 13 5 7 1014.4 1013.0 0.0
11/03:30am 16.2 15.9 14.4 89 1.0 ESE 9 11 5 6 1014.4 1013.0 0.0
11/03:00am 16.5 16.3 14.7 89 1.0 ESE 9 11 5 6 1014.4 1013.0 0.0
11/02:30am 16.3 16.3 14.3 88 1.2 ESE 7 11 4 6 1014.5 1013.1 0.0
11/02:00am 16.8 16.3 14.8 88 1.2 ESE 11 17 6 9 1014.8 1013.4 0.0
11/01:30am 16.9 15.9 14.7 87 1.3 SE 13 17 7 9 1015.0 1013.6 0.0
11/01:00am 17.2 15.6 15.0 87 1.3 SSE 17 20 9 11 1015.3 1013.9 0.0
11/12:30am 17.2 16.7 14.8 86 1.4 SSE 11 17 6 9 1015.8 1014.3 0.0
11/12:00am 17.4 17.3 14.9 85 1.5 S 9 13 5 7 1016.1 1014.6 0.0
 
Date/Time
WST
Temp
°C
App
Temp
°C
Dew
Point
Rel
Hum
%
Delta-T
°C
Wind Press
QNH
hPa
Press
MSL
hPa
Rain
since 9 am
mm
Dir
 
Spd
km/h
Gust
km/h
Spd
kts
Gust
kts
10/11:30pm 17.8 17.0 15.1 84 1.6 SSE 13 19 7 10 1016.2 1014.7 0.0
10/11:00pm 18.2 16.7 15.3 83 1.7 SE 17 24 9 13 1016.3 1014.8 0.0
10/10:30pm 18.6 17.2 15.5 82 1.9 SE 17 24 9 13 1016.2 1014.7 0.0
10/10:00pm 19.1 17.7 15.6 80 2.1 ESE 17 24 9 13 1016.4 1014.9 0.0
10/09:30pm 19.7 18.3 15.6 77 2.5 SE 17 24 9 13 1016.3 1014.8 0.0
10/09:00pm 20.8 18.8 15.6 72 3.1 ESE 20 32 11 17 1016.3 1014.8 0.0
10/08:30pm 21.9 20.0 15.3 66 4.0 ESE 19 30 10 16 1016.3 1014.8 0.0
10/08:00pm 23.5 21.8 14.8 58 5.2 ESE 17 24 9 13 1015.9 1014.4 0.0
10/07:30pm 24.8 22.7 15.1 54 5.9 SE 20 30 11 16 1015.2 1013.8 0.0
10/07:00pm 26.9 23.8 15.6 50 7.0 SE 26 37 14 20 1014.6 1013.2 0.0
10/06:30pm 29.3 25.9 15.8 44 8.4 SE 28 43 15 23 1014.0 1012.6 0.0
10/06:00pm 31.4 27.9 15.4 38 10.0 SE 28 37 15 20 1013.8 1012.3 0.0
10/05:30pm 33.6 29.0 14.6 31 11.8 SE 32 39 17 21 1013.4 1011.9 0.0
10/05:00pm 37.0 32.9 13.7 25 14.5 SE 28 41 15 22 1012.7 1011.2 0.0
10/04:54pm 37.5 34.6 12.8 22 15.2 SE 20 39 11 21 1012.8 1011.3 0.0
10/04:30pm 40.6 38.0 4.4 11 20.0 SW 7 13 4 7 1012.6 1011.1 0.0
10/04:00pm 40.3 37.6 2.8 10 20.2 SSW 6 15 3 8 1012.7 1011.2 0.0
10/03:30pm 41.2 38.9 4.9 11 20.3 WNW 6 13 3 7 1013.0 1011.5 0.0
10/03:00pm 40.4 37.7 5.5 12 19.6 S 9 19 5 10 1013.1 1011.6 0.0
10/02:30pm 40.2 38.1 6.5 13 19.2 SSE 7 22 4 12 1013.4 1011.9 0.0
10/02:00pm 39.3 37.2 5.8 13 18.8 WSW 6 13 3 7 1013.8 1012.3 0.0
10/01:30pm 38.6 36.7 7.4 15 17.9 W 7 13 4 7 1014.2 1012.8 0.0
10/01:00pm 37.6 36.1 9.2 18 16.6 NE 7 17 4 9 1014.6 1013.2 0.0
10/12:30pm 36.6 34.6 10.0 20 15.7 ESE 11 19 6 10 1015.1 1013.7 0.0
10/12:00pm 35.5 34.0 11.8 24 14.3 E 11 17 6 9 1015.4 1014.0 0.0
10/11:30am 33.9 32.9 12.3 27 13.0 E 9 22 5 12 1016.0 1014.5 0.0
10/11:00am 33.1 31.6 13.2 30 12.1 E 13 22 7 12 1016.3 1014.8 0.0
10/10:30am 30.9 28.8 12.3 32 11.1 E 15 24 8 13 1016.6 1015.2 0.0
10/10:00am 28.8 27.3 14.2 40 8.9 ESE 15 24 8 13 1017.1 1015.7 0.0
10/09:30am 27.4 25.7 14.8 46 7.7 ESE 17 26 9 14 1017.5 1016.1 0.0
10/09:00am 25.0 23.4 15.0 53 6.1 ESE 17 26 9 14 1017.6 1016.2 0.0
10/08:30am 23.4 22.0 15.5 61 4.8 SE 17 22 9 12 1017.8 1016.4 0.0
10/08:00am 21.7 20.3 15.5 68 3.7 ESE 17 20 9 11 1017.8 1016.4 0.0
10/07:30am 20.4 19.0 15.6 74 2.9 ESE 17 20 9 11 1017.7 1016.3 0.0
10/07:00am 18.7 17.1 15.9 84 1.7 E 19 24 10 13 1017.3 1015.9 0.0
10/06:30am 17.6 16.6 15.6 88 1.2 ESE 15 20 8 11 1017.4 1016.0 0.0
10/06:00am 16.5 16.0 14.9 90 0.9 ESE 11 17 6 9 1017.3 1015.9 0.0
10/05:30am 16.0 15.6 14.0 88 1.1 ESE 9 13 5 7 1017.0 1015.6 0.0
10/05:00am 16.5 15.4 14.3 87 1.3 SE 13 20 7 11 1016.9 1015.5 0.0
10/04:30am 16.8 16.5 14.3 85 1.5 SE 9 15 5 8 1016.8 1015.4 0.0
10/04:00am 17.1 16.4 14.2 83 1.7 SSE 11 17 6 9 1016.6 1015.2 0.0
10/03:30am 17.4 15.3 14.7 84 1.6 SSE 19 22 10 12 1016.2 1014.7 0.0
10/03:00am 17.4 16.0 14.5 83 1.7 SSE 15 19 8 10 1016.1 1014.6 0.0
10/02:30am 17.8 15.9 14.3 80 2.0 SSE 17 20 9 11 1016.0 1014.5 0.0
10/02:00am 18.2 16.2 13.9 76 2.5 S 17 20 9 11 1016.1 1014.6 0.0
10/01:30am 18.7 17.2 13.1 70 3.2 S 13 17 7 9 1016.3 1014.8 0.0
10/01:00am 20.1 18.3 12.1 60 4.5 S 13 19 7 10 1016.6 1015.2 0.0
10/12:30am 20.7 17.8 11.1 54 5.4 SSE 17 20 9 11 1016.5 1015.0 0.0
10/12:00am 21.7 19.1 9.3 45 6.7 SE 13 20 7 11 1016.5 1015.0 0.0
 
Date/Time
WST
Temp
°C
App
Temp
°C
Dew
Point
Rel
Hum
%
Delta-T
°C
Wind Press
QNH
hPa
Press
MSL
hPa
Rain
since 9 am
mm
Dir
 
Spd
km/h
Gust
km/h
Spd
kts
Gust
kts
09/11:30pm 22.8 19.9 8.1 39 7.9 SE 13 20 7 11 1016.5 1015.0 0.0
09/11:00pm 23.2 19.1 7.7 37 8.2 SSE 19 24 10 13 1016.6 1015.2 0.0
09/10:30pm 23.6 19.6 6.8 34 8.8 SSE 17 24 9 13 1016.7 1015.3 0.0
09/10:00pm 24.0 20.4 6.7 33 9.1 SSE 15 20 8 11 1016.9 1015.5 0.0
09/09:30pm 24.9 21.4 7.1 32 9.5 SSE 15 24 8 13 1016.8 1015.4 0.0
09/09:00pm 25.8 21.0 7.4 31 9.9 SSE 22 33 12 18 1016.7 1015.3 0.0
09/08:30pm 26.5 21.9 6.5 28 10.6 SSE 20 28 11 15 1016.2 1014.7 0.0
09/08:00pm 27.6 21.6 6.9 27 11.1 SE 28 41 15 22 1015.7 1014.2 0.0
09/07:30pm 29.3 24.2 7.8 26 11.8 SSE 24 33 13 18 1015.3 1013.9 0.0
09/07:00pm 32.8 27.5 6.9 20 14.3 SE 24 37 13 20 1014.8 1013.4 0.0
09/06:30pm 36.8 33.9 1.5 11 18.3 SSW 6 7 3 4 1014.1 1012.7 0.0
09/06:00pm 38.6 35.5 1.6 10 19.4 WSW 7 13 4 7 1014.0 1012.6 0.0
09/05:30pm 39.0 35.4 0.4 9 19.9 SW 9 17 5 9 1014.0 1012.6 0.0
09/05:00pm 39.4 35.1 0.7 9 20.1 SW 13 22 7 12 1014.0 1012.6 0.0
09/04:30pm 40.0 36.9 1.1 9 20.4 SW 7 11 4 6 1014.0 1012.6 0.0
09/04:00pm 40.1 36.6 1.2 9 20.5 SSW 9 15 5 8 1014.1 1012.7 0.0
09/03:30pm 39.5 36.2 2.2 10 19.8 WSW 9 17 5 9 1014.3 1012.9 0.0
09/03:00pm 39.6 36.0 0.9 9 20.2 S 9 19 5 10 1014.5 1013.1 0.0
09/02:30pm 39.7 35.8 0.9 9 20.3 WNW 11 19 6 10 1014.8 1013.4 0.0
09/02:00pm 40.1 36.8 2.7 10 20.1 SW 9 26 5 14 1015.0 1013.6 0.0
09/01:30pm 39.5 36.2 2.2 10 19.8 SSW 9 15 5 8 1015.4 1014.0 0.0
09/01:00pm 39.0 35.6 1.9 10 19.6 NNW 9 30 5 16 1015.7 1014.2 0.0
09/12:30pm 38.0 34.5 1.1 10 19.1 N 9 17 5 9 1016.0 1014.5 0.0
09/12:00pm 39.4 35.3 2.2 10 19.8 N 13 22 7 12 1016.3 1014.8 0.0
09/11:30am 37.8 32.9 2.3 11 18.7 N 17 30 9 16 1016.5 1015.0 0.0
09/11:00am 37.4 32.5 2.0 11 18.5 NNW 17 28 9 15 1016.9 1015.5 0.0
09/10:30am 37.1 31.8 1.8 11 18.4 NNW 19 28 10 15 1017.2 1015.8 0.0
09/10:00am 36.1 30.9 3.3 13 17.4 N 20 28 11 15 1017.4 1016.0 0.0
09/09:30am 34.3 29.0 3.0 14 16.4 N 20 28 11 15 1017.6 1016.2 0.0
09/09:00am 32.1 27.0 4.0 17 14.7 N 20 26 11 14 1017.9 1016.5 0.0
09/08:30am 30.9 25.7 5.3 20 13.6 N 22 28 12 15 1018.1 1016.7 0.0
09/08:00am 28.8 24.2 5.6 23 12.3 N 19 24 10 13 1018.3 1016.9 0.0
09/07:30am 26.8 22.7 6.2 27 10.9 NNE 17 24 9 13 1018.3 1016.9 0.0
09/07:00am 23.6 22.1 8.5 38 8.2 NE 6 9 3 5 1018.2 1016.8 0.0
09/06:30am 19.5 19.3 10.5 56 4.9 N 2 4 1 2 1018.1 1016.7 0.0
09/06:00am 14.7 15.0 10.9 78 2.0 CALM 0 0 0 0 1017.9 1016.5 0.0
09/05:30am 13.9 13.9 9.7 76 2.2 CALM 0 0 0 0 1017.7 1016.3 0.0
09/05:00am 13.8 13.7 9.6 76 2.2 CALM 0 0 0 0 1017.4 1016.0 0.0
09/04:30am 17.0 17.5 11.7 71 2.9 CALM 0 0 0 0 1017.3 1015.9 0.0
09/04:00am 16.8 16.1 11.5 71 2.9 E 6 6 3 3 1017.2 1015.8 0.0
09/03:30am 16.7 16.1 10.5 67 3.3 ENE 4 4 2 2 1017.1 1015.7 0.0
09/03:00am 18.3 17.5 11.1 63 4.0 NE 6 6 3 3 1017.0 1015.6 0.0
09/02:30am 18.9 18.1 11.2 61 4.3 ENE 6 7 3 4 1017.1 1015.7 0.0
09/02:00am 19.3 18.6 11.3 60 4.4 ENE 6 7 3 4 1017.3 1015.9 0.0
09/01:30am 21.3 19.8 11.9 55 5.3 ENE 11 17 6 9 1017.5 1016.1 0.0
09/01:00am 20.5 19.4 12.0 58 4.8 E 9 11 5 6 1017.7 1016.3 0.0
09/12:30am 20.3 19.9 12.5 61 4.5 ESE 6 7 3 4 1017.9 1016.5 0.0
09/12:00am 20.7 20.0 12.1 58 4.9 ESE 7 9 4 5 1018.2 1016.8 0.0
 
Date/Time
WST
Temp
°C
App
Temp
°C
Dew
Point
Rel
Hum
%
Delta-T
°C
Wind Press
QNH
hPa
Press
MSL
hPa
Rain
since 9 am
mm
Dir
 
Spd
km/h
Gust
km/h
Spd
kts
Gust
kts
08/11:30pm 22.0 21.0 12.3 54 5.6 E 9 11 5 6 1018.4 1017.0 0.0
08/11:00pm 23.2 22.5 11.9 49 6.5 ESE 7 9 4 5 1018.5 1017.1 0.0
08/10:30pm 24.5 23.4 11.8 45 7.3 E 9 13 5 7 1018.4 1017.0 0.0
08/10:00pm 25.6 23.7 11.7 42 8.0 ESE 13 19 7 10 1018.3 1016.9 0.0
08/09:30pm 26.4 23.9 10.9 38 8.9 ESE 15 22 8 12 1018.3 1016.9 0.0
08/09:00pm 27.5 24.8 10.2 34 9.8 ESE 15 22 8 12 1018.2 1016.8 0.0
08/08:30pm 27.7 25.3 10.0 33 10.0 ESE 13 19 7 10 1017.8 1016.4 0.0
08/08:00pm 28.7 25.4 9.4 30 10.9 ESE 17 22 9 12 1017.5 1016.1 0.0
08/07:30pm 25.7 23.2 4.8 26 10.7 SE 7 9 4 5 1017.1 1015.7 0.0
08/07:00pm 30.5 27.4 3.5 18 13.9 E 9 11 5 6 1016.8 1015.4 0.0
08/06:30pm 34.0 30.0 2.8 14 16.3 E 13 17 7 9 1016.6 1015.2 0.0
08/06:00pm 35.1 30.7 2.6 13 17.0 ENE 15 24 8 13 1016.4 1014.9 0.0
08/05:30pm 35.6 32.0 3.0 13 17.2 NE 11 19 6 10 1016.5 1015.0 0.0

Other Formats:

Comma delimited format used in spreadsheet applications
http://www.bom.gov.au/fwo/IDW60801/IDW60801.94628.axf

JavaScript Object Notation format (JSON) in row-major order
http://www.bom.gov.au/fwo/IDW60801/IDW60801.94628.json